Time;durP1;ratioP1;P1;durP2;ratioP2;P2;SDS_P1;SDS_P2;PMS_P1;PMS_P2;Temp;Humidity;BMP_temperature;BMP_pressure;BME280_temperature;BME280_humidity;BME280_pressure;Samples;Min_cycle;Max_cycle;Signal;HPM_P1;HPM_P2
2022/06/04 09:04:28;;;;;;;;;10.00;8.50;;;;;;;;1568589;27;82988;-60
2022/06/04 09:05:13;;;;;;;;;14.00;14.00;;;;;;;;1556259;27;85355;-63
2022/06/04 09:05:58;;;;;;;;;15.00;15.00;;;;;;;;1558179;27;83611;-63
2022/06/04 09:06:50;;;;;;;;;10.00;10.00;;;;;;;;1556976;28;83308;-63
2022/06/04 09:07:43;;;;;;;;;9.50;9.50;;;;;;;;1553005;28;83248;-63
2022/06/04 09:08:34;;;;;;;;;18.00;17.25;;;;;;;;1553263;28;83496;-63
2022/06/04 09:09:28;;;;;;;;;12.25;12.25;;;;;;;;1553040;28;83441;-63
2022/06/04 09:10:17;;;;;;;;;12.00;12.00;;;;;;;;1553067;28;83327;-63
2022/06/04 09:11:05;;;;;;;;;10.75;10.75;;;;;;;;1552973;28;83465;-64
2022/06/04 09:11:50;;;;;;;;;11.75;11.75;;;;;;;;1562638;27;83650;-64
2022/06/04 09:12:38;;;;;;;;;11.00;11.00;;;;;;;;1561950;27;83863;-63
2022/06/04 09:13:26;;;;;;;;;11.80;11.80;;;;;;;;1559240;28;83469;-63
2022/06/04 09:14:22;;;;;;;;;12.40;12.40;;;;;;;;1558674;28;85639;-64
2022/06/04 09:15:14;;;;;;;;;10.00;10.00;;;;;;;;1553986;28;83534;-63
2022/06/04 09:16:04;;;;;;;;;9.40;9.40;;;;;;;;1558996;27;83566;-65
2022/06/04 09:16:53;;;;;;;;;9.80;9.80;;;;;;;;1561856;27;83492;-65
2022/06/04 09:17:43;;;;;;;;;8.60;8.60;;;;;;;;1558831;28;83456;-66
2022/06/04 09:18:35;;;;;;;;;8.80;8.80;;;;;;;;1559078;28;83516;-65
2022/06/04 09:19:22;;;;;;;;;8.60;8.60;;;;;;;;1559340;28;83157;-65
2022/06/04 09:20:18;;;;;;;;;8.60;8.60;;;;;;;;1554380;28;83424;-66
2022/06/04 09:21:05;;;;;;;;;8.80;8.80;;;;;;;;1553253;28;83476;-63
2022/06/04 09:21:52;;;;;;;;;8.00;8.00;;;;;;;;1558010;27;83335;-63
2022/06/04 09:22:40;;;;;;;;;7.40;7.40;;;;;;;;1559924;27;83315;-62
2022/06/04 09:23:34;;;;;;;;;7.20;7.20;;;;;;;;1561445;27;86072;-62
2022/06/04 09:24:20;;;;;;;;;7.40;7.40;;;;;;;;1558639;28;83570;-63
2022/06/04 09:25:06;;;;;;;;;9.00;9.00;;;;;;;;1560600;27;83762;-63
2022/06/04 09:25:51;;;;;;;;;8.40;8.40;;;;;;;;1565505;27;83769;-61
2022/06/04 09:26:42;;;;;;;;;8.00;8.00;;;;;;;;1565261;27;83369;-62
2022/06/04 09:27:41;;;;;;;;;10.60;10.60;;;;;;;;1562995;27;83439;-62
2022/06/04 09:28:32;;;;;;;;;8.40;8.40;;;;;;;;1562940;27;83212;-62
2022/06/04 09:29:29;;;;;;;;;8.00;8.00;;;;;;;;1558274;27;84237;-62
2022/06/04 09:30:14;;;;;;;;;6.00;6.00;;;;;;;;1553085;28;84105;-62
2022/06/04 09:31:07;;;;;;;;;6.75;6.75;;;;;;;;1552883;28;84169;-62
2022/06/04 09:31:54;;;;;;;;;5.40;5.40;;;;;;;;1552973;28;83275;-62
2022/06/04 09:32:51;;;;;;;;;4.80;4.80;;;;;;;;1553565;28;84193;-62
2022/06/04 09:33:39;;;;;;;;;5.20;5.20;;;;;;;;1559176;28;84139;-62
2022/06/04 09:34:24;;;;;;;;;4.00;4.00;;;;;;;;1558533;27;82955;-62
2022/06/04 09:35:16;;;;;;;;;5.00;5.00;;;;;;;;1557662;28;84224;-62
2022/06/04 09:36:02;;;;;;;;;4.80;4.80;;;;;;;;1559207;27;83991;-62
2022/06/04 09:36:48;;;;;;;;;4.25;4.25;;;;;;;;1558543;28;84026;-62
2022/06/04 09:37:40;;;;;;;;;2.00;2.00;;;;;;;;1559126;28;84153;-62
2022/06/04 09:38:27;;;;;;;;;4.60;4.60;;;;;;;;1559202;27;84035;-62
2022/06/04 09:39:19;;;;;;;;;4.60;4.60;;;;;;;;1559247;28;84195;-62
2022/06/04 09:40:07;;;;;;;;;4.00;4.00;;;;;;;;1559194;27;83838;-63
2022/06/04 09:40:56;;;;;;;;;5.00;5.00;;;;;;;;1558772;28;84057;-62
2022/06/04 09:41:48;;;;;;;;;4.00;4.00;;;;;;;;1558809;27;83272;-63
2022/06/04 09:42:33;;;;;;;;;7.00;7.00;;;;;;;;1559222;27;84171;-63
2022/06/04 09:43:18;;;;;;;;;4.25;4.25;;;;;;;;1559230;28;84182;-63
2022/06/04 09:44:13;;;;;;;;;3.75;3.75;;;;;;;;1558229;28;84309;-63
2022/06/04 09:45:01;;;;;;;;;3.80;3.80;;;;;;;;1558296;28;85308;-63
2022/06/04 09:45:52;;;;;;;;;3.20;3.20;;;;;;;;1558670;28;84226;-62
2022/06/04 09:46:43;;;;;;;;;3.80;3.80;;;;;;;;1556291;28;84156;-63
2022/06/04 09:47:31;;;;;;;;;3.00;3.00;;;;;;;;1559289;28;83885;-63
2022/06/04 09:48:24;;;;;;;;;3.00;3.00;;;;;;;;1559207;27;83145;-62
2022/06/04 09:49:20;;;;;;;;;1.60;1.60;;;;;;;;1558603;27;84169;-63
2022/06/04 09:50:17;;;;;;;;;3.80;3.00;;;;;;;;1558675;28;85720;-63
2022/06/04 09:51:05;;;;;;;;;3.00;3.00;;;;;;;;1552833;28;84194;-62
2022/06/04 09:51:50;;;;;;;;;3.00;3.00;;;;;;;;1555490;28;83198;-62
2022/06/04 09:52:37;;;;;;;;;2.00;2.00;;;;;;;;1552853;28;83329;-63
2022/06/04 09:53:28;;;;;;;;;3.00;3.00;;;;;;;;1553030;28;83098;-64
2022/06/04 09:54:30;;;;;;;;;3.80;3.80;;;;;;;;1552769;28;83489;-63
2022/06/04 09:55:20;;;;;;;;;2.00;2.00;;;;;;;;1552682;28;83454;-63
2022/06/04 09:56:07;;;;;;;;;2.00;2.00;;;;;;;;1558864;27;83437;-64
2022/06/04 09:57:04;;;;;;;;;2.20;2.20;;;;;;;;1558985;27;84114;-63
2022/06/04 09:58:04;;;;;;;;;3.00;3.00;;;;;;;;1558545;27;83616;-62
2022/06/04 09:58:50;;;;;;;;;3.00;3.00;;;;;;;;1559045;28;83370;-62
2022/06/04 09:59:35;;;;;;;;;2.00;2.00;;;;;;;;1553337;27;83483;-62
2022/06/04 10:00:22;;;;;;;;;2.75;2.75;;;;;;;;1552807;28;83835;-63
2022/06/04 10:01:08;;;;;;;;;1.00;1.00;;;;;;;;1552709;28;83207;-62
2022/06/04 10:01:54;;;;;;;;;2.00;2.00;;;;;;;;1552806;28;83306;-63
2022/06/04 10:02:39;;;;;;;;;2.00;2.00;;;;;;;;1556577;28;83445;-62
2022/06/04 10:03:28;;;;;;;;;3.25;3.25;;;;;;;;1558989;28;83355;-62
2022/06/04 10:04:14;;;;;;;;;4.00;4.00;;;;;;;;1559873;27;83445;-64
2022/06/04 10:05:02;;;;;;;;;3.20;3.20;;;;;;;;1555742;27;83538;-64
2022/06/04 10:06:08;;;;;;;;;3.00;3.00;;;;;;;;1540741;28;83523;-64
2022/06/04 10:07:04;;;;;;;;;3.00;3.00;;;;;;;;1529985;28;89713;-64
2022/06/04 10:07:49;;;;;;;;;4.00;4.00;;;;;;;;1535189;28;83344;-65
2022/06/04 10:09:55;;;;;;;;;4.50;4.50;;;;;;;;1534476;28;83359;-65
2022/06/04 10:09:57;;;;;;;;;5.00;5.00;;;;;;;;1527831;28;89108;-64
2022/06/04 10:10:43;;;;;;;;;2.80;2.80;;;;;;;;1532288;28;83273;-64
2022/06/04 10:11:29;;;;;;;;;3.00;3.00;;;;;;;;1534856;28;83157;-64
2022/06/04 10:12:18;;;;;;;;;3.25;3.25;;;;;;;;1533884;28;83377;-69
2022/06/04 10:14:31;;;;;;;;;2.60;2.60;;;;;;;;1528576;28;83333;-72
2022/06/04 10:15:36;;;;;;;;;3.80;3.80;;;;;;;;1525934;28;83468;-72
2022/06/04 10:16:27;;;;;;;;;2.80;2.80;;;;;;;;1527277;28;83494;-72
2022/06/04 10:17:17;;;;;;;;;4.20;4.20;;;;;;;;1530023;28;83313;-72
2022/06/04 10:18:04;;;;;;;;;3.00;3.00;;;;;;;;1535762;28;83938;-72
2022/06/04 10:18:56;;;;;;;;;3.80;3.80;;;;;;;;1530855;28;83437;-73
2022/06/04 10:19:50;;;;;;;;;5.80;5.80;;;;;;;;1524567;28;83630;-71
2022/06/04 10:20:35;;;;;;;;;2.40;2.40;;;;;;;;1524679;28;83481;-71
2022/06/04 10:21:22;;;;;;;;;3.00;3.00;;;;;;;;1524729;28;84061;-71
2022/06/04 10:22:08;;;;;;;;;3.80;3.80;;;;;;;;1524593;28;83683;-71
2022/06/04 10:22:54;;;;;;;;;2.75;2.75;;;;;;;;1524574;28;83428;-72
2022/06/04 10:23:41;;;;;;;;;6.20;6.20;;;;;;;;1524541;28;83492;-71
2022/06/04 10:24:28;;;;;;;;;6.60;6.60;;;;;;;;1535901;28;83584;-72
2022/06/04 10:25:18;;;;;;;;;6.40;6.40;;;;;;;;1536100;28;83575;-71
2022/06/04 10:26:26;;;;;;;;;5.40;5.40;;;;;;;;1530905;28;83228;-71
2022/06/04 10:27:37;;;;;;;;;3.80;3.80;;;;;;;;1525015;28;83668;-71
2022/06/04 10:28:33;;;;;;;;;2.80;2.80;;;;;;;;1523661;28;83824;-72
2022/06/04 10:29:24;;;;;;;;;2.20;2.20;;;;;;;;1517645;28;84580;-71
2022/06/04 10:30:12;;;;;;;;;3.00;3.00;;;;;;;;1517903;28;83714;-71
2022/06/04 10:30:57;;;;;;;;;2.00;2.00;;;;;;;;1520716;28;83636;-70
2022/06/04 10:31:55;;;;;;;;;3.00;3.00;;;;;;;;1529294;28;85614;-71
2022/06/04 10:32:55;;;;;;;;;3.00;3.00;;;;;;;;1527085;28;83837;-72
2022/06/04 10:33:47;;;;;;;;;2.00;2.00;;;;;;;;1529058;28;84027;-72
2022/06/04 10:34:45;;;;;;;;;3.00;3.00;;;;;;;;1529744;28;83657;-71
2022/06/04 10:35:30;;;;;;;;;2.20;2.20;;;;;;;;1529869;28;83692;-71
2022/06/04 10:36:34;;;;;;;;;3.50;3.50;;;;;;;;1529679;28;83697;-71
2022/06/04 10:37:38;;;;;;;;;2.00;2.00;;;;;;;;1529649;28;83726;-72
2022/06/04 10:38:33;;;;;;;;;2.00;2.00;;;;;;;;1529692;28;84004;-72
2022/06/04 10:39:19;;;;;;;;;3.60;3.60;;;;;;;;1529343;28;83379;-71
2022/06/04 10:40:22;;;;;;;;;4.75;4.75;;;;;;;;1529477;28;83583;-71
2022/06/04 10:41:13;;;;;;;;;4.00;4.00;;;;;;;;1532387;28;83392;-72
2022/06/04 10:42:07;;;;;;;;;3.00;3.00;;;;;;;;1527843;28;83199;-71
2022/06/04 10:42:55;;;;;;;;;4.20;4.20;;;;;;;;1523625;28;84233;-71
2022/06/04 10:44:03;;;;;;;;;3.00;3.00;;;;;;;;1523776;28;84082;-72
2022/06/04 10:45:06;;;;;;;;;4.00;4.00;;;;;;;;1499752;29;86517;-72
2022/06/04 10:46:04;;;;;;;;;3.00;3.00;;;;;;;;1496733;29;84133;-71
2022/06/04 10:46:56;;;;;;;;;1.80;1.80;;;;;;;;1499870;29;84880;-72
2022/06/04 10:47:48;;;;;;;;;2.80;2.80;;;;;;;;1499592;29;83317;-72
2022/06/04 10:48:39;;;;;;;;;3.80;3.80;;;;;;;;1500087;29;87317;-72
2022/06/04 10:49:30;;;;;;;;;2.20;2.20;;;;;;;;1500048;29;84245;-71
2022/06/04 10:51:25;;;;;;;;;3.00;3.00;;;;;;;;1499967;29;83418;-72
2022/06/04 10:51:48;;;;;;;;;3.00;3.00;;;;;;;;1499161;29;84001;-72
2022/06/04 10:52:45;;;;;;;;;2.40;2.40;;;;;;;;1499895;29;84181;-72
2022/06/04 10:53:50;;;;;;;;;3.20;3.20;;;;;;;;1499668;29;83167;-72
2022/06/04 10:54:47;;;;;;;;;2.80;2.80;;;;;;;;1493436;29;83672;-72
2022/06/04 10:55:48;;;;;;;;;3.00;3.00;;;;;;;;1499955;29;83392;-71
2022/06/04 10:56:37;;;;;;;;;5.20;5.20;;;;;;;;1500021;29;84248;-71
2022/06/04 10:57:36;;;;;;;;;5.00;5.00;;;;;;;;1499544;29;84280;-72
2022/06/04 10:58:32;;;;;;;;;4.20;4.20;;;;;;;;1499982;29;83828;-72
2022/06/04 10:59:37;;;;;;;;;5.00;5.00;;;;;;;;1499839;29;84208;-72
2022/06/04 11:00:29;;;;;;;;;10.40;10.40;;;;;;;;1499930;29;84018;-71
2022/06/04 11:01:35;;;;;;;;;7.20;6.40;;;;;;;;1499762;29;83370;-71
2022/06/04 11:02:23;;;;;;;;;6.00;6.00;;;;;;;;1498708;29;85614;-71
2022/06/04 11:03:18;;;;;;;;;8.00;8.00;;;;;;;;1499832;29;84093;-71
2022/06/04 11:04:08;;;;;;;;;2.00;2.00;;;;;;;;1499623;29;85725;-71
2022/06/04 11:05:00;;;;;;;;;4.00;4.00;;;;;;;;1499927;29;84541;-71
2022/06/04 11:05:50;;;;;;;;;9.60;9.60;;;;;;;;1503480;29;83276;-71
2022/06/04 11:06:38;;;;;;;;;6.00;6.00;;;;;;;;1505840;29;84489;-72
2022/06/04 11:07:42;;;;;;;;;4.60;4.60;;;;;;;;1501777;29;84115;-71
2022/06/04 11:08:32;;;;;;;;;5.00;5.00;;;;;;;;1502604;29;84923;-71
2022/06/04 11:09:33;;;;;;;;;5.00;5.00;;;;;;;;1499862;29;83660;-71
2022/06/04 11:10:21;;;;;;;;;5.40;5.40;;;;;;;;1499890;29;83248;-71
2022/06/04 11:11:16;;;;;;;;;4.00;4.00;;;;;;;;1499886;29;83407;-72
2022/06/04 11:12:19;;;;;;;;;9.20;9.20;;;;;;;;1501256;29;83340;-71
2022/06/04 11:13:22;;;;;;;;;9.20;9.20;;;;;;;;1499699;29;84328;-71
2022/06/04 11:14:19;;;;;;;;;7.00;7.00;;;;;;;;1494851;29;83721;-71
2022/06/04 11:15:17;;;;;;;;;5.00;5.00;;;;;;;;1499778;29;83609;-71
2022/06/04 11:16:21;;;;;;;;;5.20;5.20;;;;;;;;1499840;29;83256;-71
2022/06/04 11:17:06;;;;;;;;;5.00;5.00;;;;;;;;1499339;29;83397;-71
2022/06/04 11:18:17;;;;;;;;;6.00;6.00;;;;;;;;1499964;29;83144;-71
2022/06/04 11:19:25;;;;;;;;;3.60;3.60;;;;;;;;1499537;29;83437;-71
2022/06/04 11:20:19;;;;;;;;;4.00;4.00;;;;;;;;1494751;29;83312;-72
2022/06/04 11:21:09;;;;;;;;;10.80;10.80;;;;;;;;1499757;29;83944;-71
2022/06/04 11:22:03;;;;;;;;;8.00;8.00;;;;;;;;1499650;29;83567;-71
2022/06/04 11:22:53;;;;;;;;;17.00;17.00;;;;;;;;1517994;28;84177;-71
2022/06/04 11:23:42;;;;;;;;;6.40;6.40;;;;;;;;1529624;28;83643;-70
2022/06/04 11:24:39;;;;;;;;;3.20;3.20;;;;;;;;1529941;28;83111;-71
2022/06/04 11:25:27;;;;;;;;;15.00;15.00;;;;;;;;1529572;28;83612;-70
2022/06/04 11:26:32;;;;;;;;;4.00;4.00;;;;;;;;1529759;28;83649;-70
2022/06/04 11:27:21;;;;;;;;;4.80;4.80;;;;;;;;1528398;28;83398;-71
2022/06/04 11:28:10;;;;;;;;;8.20;8.20;;;;;;;;1530036;28;83436;-71
2022/06/04 11:28:56;;;;;;;;;4.00;4.00;;;;;;;;1530009;28;83405;-67
2022/06/04 11:29:41;;;;;;;;;4.40;4.40;;;;;;;;1530054;28;83506;-74
2022/06/04 11:30:41;;;;;;;;;5.75;5.75;;;;;;;;1530059;28;83325;-73
2022/06/04 11:31:28;;;;;;;;;3.40;3.40;;;;;;;;1529738;28;83419;-73
2022/06/04 11:32:22;;;;;;;;;4.00;4.00;;;;;;;;1529893;28;83562;-73
2022/06/04 11:33:18;;;;;;;;;3.20;3.20;;;;;;;;1530017;28;83184;-73
2022/06/04 11:34:04;;;;;;;;;8.60;8.60;;;;;;;;1532615;28;83378;-73
2022/06/04 11:34:52;;;;;;;;;5.00;5.00;;;;;;;;1530012;28;83921;-72
2022/06/04 11:35:37;;;;;;;;;3.80;3.80;;;;;;;;1529652;28;83337;-73
2022/06/04 11:36:38;;;;;;;;;4.50;4.50;;;;;;;;1529650;28;83365;-73
2022/06/04 11:37:38;;;;;;;;;4.00;4.00;;;;;;;;1529528;28;83519;-73
2022/06/04 11:38:26;;;;;;;;;6.00;6.00;;;;;;;;1530031;28;83479;-73
2022/06/04 11:39:30;;;;;;;;;6.00;6.00;;;;;;;;1530088;28;84027;-73
2022/06/04 11:40:27;;;;;;;;;6.60;6.60;;;;;;;;1530047;28;83770;-74
2022/06/04 11:41:21;;;;;;;;;8.00;8.00;;;;;;;;1529614;28;83629;-73
2022/06/04 11:42:17;;;;;;;;;9.60;9.60;;;;;;;;1529530;28;83739;-73
2022/06/04 11:43:14;;;;;;;;;8.00;8.00;;;;;;;;1523989;28;84838;-73
2022/06/04 11:44:02;;;;;;;;;4.40;4.40;;;;;;;;1526694;28;83582;-74
2022/06/04 11:44:57;;;;;;;;;5.60;5.60;;;;;;;;1529777;28;84134;-73
2022/06/04 11:45:42;;;;;;;;;6.00;6.00;;;;;;;;1530187;28;83572;-73
2022/06/04 11:46:30;;;;;;;;;6.00;6.00;;;;;;;;1528745;28;83400;-73
2022/06/04 11:47:15;;;;;;;;;3.40;3.40;;;;;;;;1524100;28;84084;-73
2022/06/04 11:48:16;;;;;;;;;3.25;3.25;;;;;;;;1524024;28;83787;-74
2022/06/04 11:49:04;;;;;;;;;3.20;3.20;;;;;;;;1523899;28;83658;-73
2022/06/04 11:50:00;;;;;;;;;3.20;3.20;;;;;;;;1523944;28;83701;-73
2022/06/04 11:50:54;;;;;;;;;2.60;2.60;;;;;;;;1524012;28;83880;-73
2022/06/04 11:52:03;;;;;;;;;2.80;2.80;;;;;;;;1523834;28;83752;-73
2022/06/04 11:52:54;;;;;;;;;5.00;5.00;;;;;;;;1524150;28;83669;-73
2022/06/04 11:53:48;;;;;;;;;3.00;3.00;;;;;;;;1529480;28;84220;-73
2022/06/04 11:55:00;;;;;;;;;2.80;2.80;;;;;;;;1529597;28;83859;-73
2022/06/04 11:55:51;;;;;;;;;2.60;2.60;;;;;;;;1522631;28;83590;-73
2022/06/04 11:57:00;;;;;;;;;3.20;3.20;;;;;;;;1528617;28;83604;-73
2022/06/04 11:57:53;;;;;;;;;2.60;2.60;;;;;;;;1529989;28;83837;-73
2022/06/04 11:58:57;;;;;;;;;3.00;3.00;;;;;;;;1530153;28;83446;-73
2022/06/04 11:59:45;;;;;;;;;4.60;4.60;;;;;;;;1530043;28;83716;-74
2022/06/04 12:00:36;;;;;;;;;4.00;4.00;;;;;;;;1532724;28;83850;-73
2022/06/04 12:01:34;;;;;;;;;3.00;3.00;;;;;;;;1529989;28;84282;-74
2022/06/04 12:02:19;;;;;;;;;4.80;4.80;;;;;;;;1529833;28;84535;-74
2022/06/04 12:03:04;;;;;;;;;2.25;2.25;;;;;;;;1529504;28;83697;-68
2022/06/04 12:04:02;;;;;;;;;4.00;4.00;;;;;;;;1529602;28;84224;-73
2022/06/04 12:05:05;;;;;;;;;2.20;2.20;;;;;;;;1529346;28;83298;-73
2022/06/04 12:05:58;;;;;;;;;4.40;4.40;;;;;;;;1529037;28;84107;-73
2022/06/04 12:06:48;;;;;;;;;2.80;2.80;;;;;;;;1529501;28;84790;-73
2022/06/04 12:07:41;;;;;;;;;2.40;2.40;;;;;;;;1529943;28;84366;-73
2022/06/04 12:08:59;;;;;;;;;3.40;3.40;;;;;;;;1529976;28;83288;-73
2022/06/04 12:09:48;;;;;;;;;4.00;4.00;;;;;;;;1517176;28;84545;-73
2022/06/04 12:10:33;;;;;;;;;2.60;2.60;;;;;;;;1517284;28;84248;-73
2022/06/04 12:11:32;;;;;;;;;2.75;2.75;;;;;;;;1516722;28;84255;-73
2022/06/04 12:12:21;;;;;;;;;2.20;2.20;;;;;;;;1517426;28;86139;-73
2022/06/04 12:13:36;;;;;;;;;3.60;3.60;;;;;;;;1517178;28;84240;-73
2022/06/04 12:14:24;;;;;;;;;4.00;4.00;;;;;;;;1505147;29;84303;-73
2022/06/04 12:15:26;;;;;;;;;4.00;4.00;;;;;;;;1505442;29;83079;-73
2022/06/04 12:16:23;;;;;;;;;3.00;3.00;;;;;;;;1504998;29;83970;-73
2022/06/04 12:17:17;;;;;;;;;2.80;2.80;;;;;;;;1505439;29;84069;-73
2022/06/04 12:18:23;;;;;;;;;4.40;4.40;;;;;;;;1505540;29;84230;-73
2022/06/04 12:24:15;;;;;;;;;3.00;3.00;;;;;;;;1505124;29;84264;-73
2022/06/04 12:24:17;;;;;;;;;3.00;3.00;;;;;;;;1505533;29;83074;-69
2022/06/04 12:25:04;;;;;;;;;3.60;3.60;;;;;;;;1505285;29;84415;-67
2022/06/04 12:26:00;;;;;;;;;5.00;5.00;;;;;;;;1504409;29;84496;-68
2022/06/04 12:26:49;;;;;;;;;3.60;3.60;;;;;;;;1505508;29;84252;-68
2022/06/04 12:27:35;;;;;;;;;4.20;4.20;;;;;;;;1508141;29;84294;-68
2022/06/04 12:28:20;;;;;;;;;4.00;4.00;;;;;;;;1505137;29;83165;-68
2022/06/04 12:29:24;;;;;;;;;4.00;4.00;;;;;;;;1502622;29;83648;-68
2022/06/04 12:30:17;;;;;;;;;3.00;3.00;;;;;;;;1499454;29;83477;-68
2022/06/04 12:31:03;;;;;;;;;3.00;3.00;;;;;;;;1501366;29;83470;-68
2022/06/04 12:31:58;;;;;;;;;4.00;4.00;;;;;;;;1505562;29;83253;-68
2022/06/04 12:32:54;;;;;;;;;3.00;3.00;;;;;;;;1505569;29;83533;-68
2022/06/04 12:33:49;;;;;;;;;1.25;1.25;;;;;;;;1504576;29;83805;-68
2022/06/04 12:34:38;;;;;;;;;2.80;2.80;;;;;;;;1504905;29;83524;-68
2022/06/04 12:35:24;;;;;;;;;2.00;2.00;;;;;;;;1505156;29;83736;-68
2022/06/04 12:36:12;;;;;;;;;2.00;2.00;;;;;;;;1505173;29;83744;-68
2022/06/04 12:36:57;;;;;;;;;2.00;2.00;;;;;;;;1501558;29;83505;-68
2022/06/04 12:37:44;;;;;;;;;3.00;3.00;;;;;;;;1499741;29;83404;-68
2022/06/04 12:38:32;;;;;;;;;2.00;2.00;;;;;;;;1499232;29;83304;-68
2022/06/04 12:39:21;;;;;;;;;3.20;3.20;;;;;;;;1499629;29;83710;-68
2022/06/04 12:40:27;;;;;;;;;2.40;2.40;;;;;;;;1499565;29;83474;-68
2022/06/04 12:41:12;;;;;;;;;3.60;3.60;;;;;;;;1508060;28;84182;-68
2022/06/04 12:42:00;;;;;;;;;2.25;2.25;;;;;;;;1511261;28;83591;-68
2022/06/04 12:43:03;;;;;;;;;3.00;3.00;;;;;;;;1511281;28;83602;-68
2022/06/04 12:43:58;;;;;;;;;2.80;2.80;;;;;;;;1511399;28;83282;-68
2022/06/04 12:44:55;;;;;;;;;4.00;4.00;;;;;;;;1511356;28;83188;-68
2022/06/04 12:45:41;;;;;;;;;2.60;2.60;;;;;;;;1510205;28;83463;-68
2022/06/04 12:46:28;;;;;;;;;2.20;2.20;;;;;;;;1513138;28;83607;-68
2022/06/04 12:47:22;;;;;;;;;3.00;3.00;;;;;;;;1516982;28;83383;-68
2022/06/04 12:48:36;;;;;;;;;3.40;3.40;;;;;;;;1517095;28;83353;-68
2022/06/04 12:49:43;;;;;;;;;4.00;4.00;;;;;;;;1516578;28;83606;-68
2022/06/04 12:50:30;;;;;;;;;4.00;4.00;;;;;;;;1516997;28;84203;-68
2022/06/04 12:51:25;;;;;;;;;2.00;2.00;;;;;;;;1516867;28;83496;-68
2022/06/04 12:52:36;;;;;;;;;2.40;2.40;;;;;;;;1528775;28;83555;-69
2022/06/04 12:53:22;;;;;;;;;2.20;2.20;;;;;;;;1531811;28;83056;-68
2022/06/04 12:54:23;;;;;;;;;4.00;4.00;;;;;;;;1522789;28;86411;-68
2022/06/04 12:55:08;;;;;;;;;2.80;2.80;;;;;;;;1522947;28;83616;-68
2022/06/04 12:55:53;;;;;;;;;3.75;3.75;;;;;;;;1523453;28;83488;-68
2022/06/04 12:56:39;;;;;;;;;2.25;2.25;;;;;;;;1524656;28;83575;-68
2022/06/04 12:57:34;;;;;;;;;2.40;2.40;;;;;;;;1528943;28;83521;-68
2022/06/04 12:58:26;;;;;;;;;2.40;2.40;;;;;;;;1528987;28;83539;-67
2022/06/04 12:59:27;;;;;;;;;3.00;3.00;;;;;;;;1528829;28;83736;-68
2022/06/04 13:00:18;;;;;;;;;3.40;3.40;;;;;;;;1528794;28;84663;-68
2022/06/04 13:01:05;;;;;;;;;2.80;2.80;;;;;;;;1528306;28;83540;-68
2022/06/04 13:01:50;;;;;;;;;3.00;3.00;;;;;;;;1529045;28;83465;-68
2022/06/04 13:02:36;;;;;;;;;2.25;2.25;;;;;;;;1529009;28;83540;-67
2022/06/04 13:03:27;;;;;;;;;3.00;3.00;;;;;;;;1528910;28;83768;-67
2022/06/04 13:04:13;;;;;;;;;2.40;2.40;;;;;;;;1532233;28;83278;-67
2022/06/04 13:05:19;;;;;;;;;2.00;2.00;;;;;;;;1534777;28;84050;-68
2022/06/04 13:06:21;;;;;;;;;3.40;3.40;;;;;;;;1533346;28;83460;-68
2022/06/04 13:07:19;;;;;;;;;4.00;4.00;;;;;;;;1522869;28;83636;-68
2022/06/04 13:08:11;;;;;;;;;3.00;3.00;;;;;;;;1522993;28;83778;-68
2022/06/04 13:09:08;;;;;;;;;2.80;2.80;;;;;;;;1522870;28;83774;-68
2022/06/04 13:10:01;;;;;;;;;2.80;2.80;;;;;;;;1523014;28;83748;-68
2022/06/04 13:10:58;;;;;;;;;4.00;4.00;;;;;;;;1527574;28;83504;-68
2022/06/04 13:11:48;;;;;;;;;2.60;2.60;;;;;;;;1528944;28;84093;-68
2022/06/04 13:12:45;;;;;;;;;4.20;4.20;;;;;;;;1528952;28;83966;-68
2022/06/04 13:13:30;;;;;;;;;4.00;4.00;;;;;;;;1529563;28;83814;-69
2022/06/04 13:14:42;;;;;;;;;3.75;3.75;;;;;;;;1534791;28;83476;-68
2022/06/04 13:15:30;;;;;;;;;3.60;3.60;;;;;;;;1532909;28;83407;-70
2022/06/04 13:16:18;;;;;;;;;3.40;3.40;;;;;;;;1520184;28;83823;-73
2022/06/04 13:17:15;;;;;;;;;3.00;3.00;;;;;;;;1521711;28;85390;-71
2022/06/04 13:18:01;;;;;;;;;4.20;4.20;;;;;;;;1525520;28;83787;-71
2022/06/04 13:18:58;;;;;;;;;3.60;3.60;;;;;;;;1522693;28;83475;-73
2022/06/04 13:20:02;;;;;;;;;4.60;4.60;;;;;;;;1522840;28;84243;-70
2022/06/04 13:20:51;;;;;;;;;4.20;4.20;;;;;;;;1528412;28;84233;-70
2022/06/04 13:21:38;;;;;;;;;3.80;3.80;;;;;;;;1528892;28;84340;-69
2022/06/04 13:22:34;;;;;;;;;3.60;3.60;;;;;;;;1528848;28;84001;-69
2022/06/04 13:23:41;;;;;;;;;3.20;3.20;;;;;;;;1529198;28;84538;-69
2022/06/04 13:24:27;;;;;;;;;4.00;4.00;;;;;;;;1534905;28;84391;-70
2022/06/04 13:25:16;;;;;;;;;5.00;5.00;;;;;;;;1531873;28;84374;-69
2022/06/04 13:26:17;;;;;;;;;4.00;4.00;;;;;;;;1528850;28;83356;-69
2022/06/04 13:27:05;;;;;;;;;3.80;3.80;;;;;;;;1526094;28;84249;-70
2022/06/04 13:27:52;;;;;;;;;3.60;3.60;;;;;;;;1523594;28;84187;-69
2022/06/04 13:28:39;;;;;;;;;4.40;4.40;;;;;;;;1523642;28;84179;-69
2022/06/04 13:29:29;;;;;;;;;3.00;3.00;;;;;;;;1522995;28;84228;-69
2022/06/04 13:30:16;;;;;;;;;4.60;4.60;;;;;;;;1523770;28;84045;-69
2022/06/04 13:31:02;;;;;;;;;3.80;3.80;;;;;;;;1526480;28;83996;-68
2022/06/04 13:31:56;;;;;;;;;4.00;4.00;;;;;;;;1523693;28;84064;-69
2022/06/04 13:32:41;;;;;;;;;6.00;6.00;;;;;;;;1523620;28;84103;-68
2022/06/04 13:33:26;;;;;;;;;4.50;4.50;;;;;;;;1523148;28;84272;-70
2022/06/04 13:34:13;;;;;;;;;3.25;3.25;;;;;;;;1523454;28;83266;-70
2022/06/04 13:35:03;;;;;;;;;4.40;4.40;;;;;;;;1523412;28;84218;-69
2022/06/04 13:35:51;;;;;;;;;4.40;4.40;;;;;;;;1523656;28;84276;-70
2022/06/04 13:36:36;;;;;;;;;3.60;3.60;;;;;;;;1523558;28;83132;-70
2022/06/04 13:37:24;;;;;;;;;3.00;3.00;;;;;;;;1523537;28;84061;-70
2022/06/04 13:38:16;;;;;;;;;4.00;4.00;;;;;;;;1523495;28;83999;-69
2022/06/04 13:39:01;;;;;;;;;4.60;4.60;;;;;;;;1523486;28;84053;-68
2022/06/04 13:39:48;;;;;;;;;3.00;3.00;;;;;;;;1523503;28;84010;-70
2022/06/04 13:40:33;;;;;;;;;3.40;3.40;;;;;;;;1524287;28;83799;-70
2022/06/04 13:42:01;;;;;;;;;4.00;4.00;;;;;;;;1523493;28;83299;-69
2022/06/04 13:42:29;;;;;;;;;5.40;5.40;;;;;;;;1525767;28;83398;-69
2022/06/04 13:43:15;;;;;;;;;3.40;3.40;;;;;;;;1534872;28;83570;-68
2022/06/04 13:44:04;;;;;;;;;3.00;3.00;;;;;;;;1535188;28;83775;-69
2022/06/04 13:44:59;;;;;;;;;4.60;4.60;;;;;;;;1530564;28;83414;-68
2022/06/04 13:45:45;;;;;;;;;4.20;4.20;;;;;;;;1524039;28;83353;-69
2022/06/04 13:46:30;;;;;;;;;4.00;4.00;;;;;;;;1523290;28;83577;-74
2022/06/04 13:47:21;;;;;;;;;4.00;4.00;;;;;;;;1526769;28;83480;-70
2022/06/04 13:48:34;;;;;;;;;3.20;3.20;;;;;;;;1529417;28;83354;-70
2022/06/04 13:49:24;;;;;;;;;3.00;3.00;;;;;;;;1528473;28;84367;-70
2022/06/04 13:50:10;;;;;;;;;4.00;4.00;;;;;;;;1529540;28;83360;-70
2022/06/04 13:50:55;;;;;;;;;3.40;3.40;;;;;;;;1530390;28;83492;-69
2022/06/04 13:51:45;;;;;;;;;4.00;4.00;;;;;;;;1533376;28;83265;-70
2022/06/04 13:52:39;;;;;;;;;4.00;4.00;;;;;;;;1527662;28;83342;-70
2022/06/04 13:53:27;;;;;;;;;3.20;3.20;;;;;;;;1529746;28;87307;-71
2022/06/04 13:54:23;;;;;;;;;4.60;4.60;;;;;;;;1529749;28;83287;-72
2022/06/04 13:55:14;;;;;;;;;5.00;5.00;;;;;;;;1527071;28;84373;-74
2022/06/04 13:56:01;;;;;;;;;6.00;4.00;;;;;;;;1524564;28;83248;-74
2022/06/04 13:56:46;;;;;;;;;3.40;3.40;;;;;;;;1524538;28;83443;-74
2022/06/04 13:57:40;;;;;;;;;3.20;3.20;;;;;;;;1524584;28;83330;-76
2022/06/04 13:58:28;;;;;;;;;3.80;3.80;;;;;;;;1535908;28;83557;-75
2022/06/04 13:59:24;;;;;;;;;5.00;5.00;;;;;;;;1536073;28;83402;-75
2022/06/04 14:00:12;;;;;;;;;4.20;4.20;;;;;;;;1529191;28;83249;-76
2022/06/04 14:00:59;;;;;;;;;2.00;2.00;;;;;;;;1524521;28;83542;-75
2022/06/04 14:01:45;;;;;;;;;4.60;4.60;;;;;;;;1524344;28;83349;-75
2022/06/04 14:02:30;;;;;;;;;4.00;4.00;;;;;;;;1524453;28;83602;-78
2022/06/04 14:03:18;;;;;;;;;3.50;3.50;;;;;;;;1524177;28;83600;-75
2022/06/04 14:05:51;;;;;;;;;4.00;4.00;;;;;;;;1524456;28;83285;-76
2022/06/04 14:06:36;;;;;;;;;4.20;4.20;;;;;;;;1527170;28;83414;-75
2022/06/04 14:07:30;;;;;;;;;3.75;3.75;;;;;;;;1524769;28;83589;-74
2022/06/04 14:08:16;;;;;;;;;2.40;2.40;;;;;;;;1530409;28;83819;-74
2022/06/04 14:09:02;;;;;;;;;3.60;3.60;;;;;;;;1530417;28;84118;-74
2022/06/04 14:09:51;;;;;;;;;3.25;3.25;;;;;;;;1539278;28;84608;-74
2022/06/04 14:10:36;;;;;;;;;5.20;5.20;;;;;;;;1535736;28;84099;-74
2022/06/04 14:11:30;;;;;;;;;3.00;3.00;;;;;;;;1531177;28;83928;-75
2022/06/04 14:12:20;;;;;;;;;4.40;4.40;;;;;;;;1524409;28;84081;-74
2022/06/04 14:13:15;;;;;;;;;4.00;4.00;;;;;;;;1524483;28;83231;-74
2022/06/04 14:14:18;;;;;;;;;3.00;3.00;;;;;;;;1534001;28;83993;-71
2022/06/04 14:15:06;;;;;;;;;5.00;5.00;;;;;;;;1530329;28;83179;-70
2022/06/04 14:15:51;;;;;;;;;3.00;3.00;;;;;;;;1529816;28;85484;-70
2022/06/04 14:16:42;;;;;;;;;4.00;4.00;;;;;;;;1529643;28;84030;-70
2022/06/04 14:17:30;;;;;;;;;2.80;2.80;;;;;;;;1526993;28;85772;-70
2022/06/04 14:18:30;;;;;;;;;5.00;5.00;;;;;;;;1523865;28;83336;-70
2022/06/04 14:19:40;;;;;;;;;3.00;3.00;;;;;;;;1524480;28;83558;-70
2022/06/04 14:20:32;;;;;;;;;4.80;4.80;;;;;;;;1524416;28;83740;-70
2022/06/04 14:21:26;;;;;;;;;3.00;3.00;;;;;;;;1524361;28;83707;-70
2022/06/04 14:22:37;;;;;;;;;3.00;3.00;;;;;;;;1524329;28;83243;-70
2022/06/04 14:23:43;;;;;;;;;3.40;3.40;;;;;;;;1523947;28;83556;-70
2022/06/04 14:24:46;;;;;;;;;5.00;5.00;;;;;;;;1529177;28;85998;-71
2022/06/04 14:25:31;;;;;;;;;6.00;6.00;;;;;;;;1535929;28;83497;-70
2022/06/04 14:26:24;;;;;;;;;5.25;5.25;;;;;;;;1531878;28;83528;-70